Flight Track Log - Related Links

Times and Time Zones

All times are in EST time to prevent confusion due to time zone crossing. See the N6199B flight status page for this flight to view local times or setup timezone preferences in your user account.

Time Position Orientation Groundspeed Altitude Reporting Facility
EST Latitude Longitude Course Direction KTS MPH feet Rate Location/Type
Mon 08:54:03 PM 28.9667 -81.0333 156° South 99 114 3,500  Level Orlando TRACON
Mon 08:55:03 PM 28.9333 -81.0167 156° South 99 114 3,500 -50 Level Orlando TRACON
Mon 08:56:04 PM 28.9167 -81.0167 180° South 99 114 3,400  Descending Orlando TRACON
Mon 08:57:03 PM 28.8833 -81.0000 156° South 99 114 3,500 50 Climbing Orlando TRACON
Mon 08:58:03 PM 28.8667 -81.0000 180° South 97 112 3,500  Level Orlando TRACON
Mon 08:59:04 PM 28.8333 -80.9833 156° South 99 114 3,500  Level Orlando TRACON
Mon 09:00:04 PM 28.8000 -80.9833 180° South 96 110 3,500  Level Orlando TRACON
Mon 09:01:04 PM 28.7833 -80.9667 139° Southeast 95 109 3,500  Level Orlando TRACON
Mon 09:02:04 PM 28.7500 -80.9667 180° South 98 113 3,500  Level Orlando TRACON
Mon 09:03:04 PM 28.7333 -80.9500 139° Southeast 102 117 3,500  Level Orlando TRACON
Mon 09:04:04 PM 28.7000 -80.9500 180° South 102 117 3,500  Level Orlando TRACON
Mon 09:05:04 PM 28.6667 -80.9333 156° South 99 114 3,500  Level Orlando TRACON
Mon 09:06:04 PM 28.6500 -80.9333 180° South 99 114 3,500  Level Orlando TRACON
Mon 09:07:04 PM 28.6167 -80.9333 180° South 101 116 3,500  Level Orlando TRACON
Mon 09:08:04 PM 28.6000 -80.9167 139° Southeast 99 114 3,500  Level Orlando TRACON
Mon 09:09:04 PM 28.5667 -80.9000 156° South 102 117 3,500  Level Orlando TRACON
Mon 09:10:04 PM 28.5333 -80.9000 180° South 101 116 3,500  Level Orlando TRACON
Mon 09:11:04 PM 28.5167 -80.8833 139° Southeast 104 120 3,500  Level Orlando TRACON
Mon 09:12:04 PM 28.4833 -80.8667 156° South 104 120 3,500  Level Orlando TRACON
Mon 09:13:04 PM 28.4667 -80.8667 180° South 100 115 3,500  Level Orlando TRACON
Mon 09:14:04 PM 28.4333 -80.8500 156° South 98 113 3,500  Level Orlando TRACON
Mon 09:16:29 PM 28.3664 -80.8414 174° South 106 122 3,500  Level Miami Center
Mon 09:17:29 PM 28.3417 -80.8311 160° South 106 122 3,500  Level Miami Center
Mon 09:18:29 PM 28.3169 -80.8233 165° South 106 122 3,500  Level Miami Center
Mon 09:19:29 PM 28.2900 -80.8175 169° South 101 116 3,500  Level Miami Center
Mon 09:20:29 PM 28.2631 -80.8047 157° South 101 116 3,500  Level Miami Center
Mon 09:21:29 PM 28.2403 -80.8017 173° South 106 122 3,500  Level Miami Center
Mon 09:22:29 PM 28.2133 -80.7914 161° South 106 122 3,500 -50 Level Miami Center
Mon 09:23:29 PM 28.1867 -80.7786 157° South 101 116 3,400 -50 Descending Miami Center
Mon 09:24:29 PM 28.1597 -80.7731 170° South 101 116 3,400 50 Level Miami Center
Mon 09:25:29 PM 28.1347 -80.7675 169° South 101 116 3,500  Climbing Miami Center
Mon 09:26:29 PM 28.1119 -80.7594 163° South 101 116 3,400 -50 Descending Miami Center
Mon 09:27:29 PM 28.0831 -80.7514 166° South 96 110 3,400  Level Miami Center
Mon 09:28:29 PM 28.0561 -80.7436 166° South 101 116 3,400  Level Miami Center
Mon 09:29:29 PM 28.0311 -80.7381 169° South 101 116 3,400 50 Level Miami Center
Mon 09:30:29 PM 28.0064 -80.7322 168° South 101 116 3,500 50 Climbing Miami Center
Mon 09:31:29 PM 27.9814 -80.7269 169° South 101 116 3,500  Level Miami Center
Mon 09:32:29 PM 27.9525 -80.7164 162° South 101 116 3,500  Level Miami Center
Mon 09:33:29 PM 27.9233 -80.7083 166° South 101 116 3,500  Level Miami Center
Mon 09:34:29 PM 27.8967 -80.7006 166° South 101 116 3,500  Level Miami Center
Mon 09:35:29 PM 27.8739 -80.6925 163° South 106 122 3,500  Level Miami Center
Mon 09:36:29 PM 27.8469 -80.6822 161° South 106 122 3,500  Level Miami Center
Mon 09:37:29 PM 27.8158 -80.6742 167° South 106 122 3,500  Level Miami Center
Mon 09:38:29 PM 27.7911 -80.6664 164° South 106 122 3,500  Level Miami Center
Mon 09:39:29 PM 27.7642 -80.6583 165° South 106 122 3,500  Level Miami Center
Mon 09:40:29 PM 27.7392 -80.6506 165° South 106 122 3,500  Level Miami Center
Mon 09:41:29 PM 27.7125 -80.6403 161° South 106 122 3,500  Level Miami Center
Mon 09:42:29 PM 27.6833 -80.6347 170° South 106 122 3,500  Level Miami Center
Mon 09:43:29 PM 27.6564 -80.6267 165° South 106 122 3,500  Level Miami Center
Mon 09:44:29 PM 27.6317 -80.6142 156° South 106 122 3,500  Level Miami Center
Mon 09:45:29 PM 27.6067 -80.6064 165° South 106 122 3,500  Level Miami Center
Mon 09:46:29 PM 27.5778 -80.5936 159° South 106 122 3,500  Level Miami Center
Mon 09:47:29 PM 27.5531 -80.5883 169° South 106 122 3,500  Level Miami Center
Mon 09:48:29 PM 27.5261 -80.5756 157° South 106 122 3,500  Level Miami Center
Mon 09:49:29 PM 27.5033 -80.5678 163° South 106 122 3,500  Level Miami Center
Mon 09:50:29 PM 27.4764 -80.5600 166° South 106 122 3,500  Level Miami Center
Mon 09:51:29 PM 27.4475 -80.5519 166° South 106 122 3,500 -50 Level Miami Center
Mon 09:52:29 PM 27.4206 -80.5464 170° South 106 122 3,400  Descending Miami Center
Mon 09:53:29 PM 27.3956 -80.5364 160° South 106 122 3,500 50 Climbing Miami Center
Mon 09:54:29 PM 27.3706 -80.5331 173° South 101 116 3,500  Level Miami Center
Mon 09:55:29 PM 27.3458 -80.5253 164° South 101 116 3,500  Level Miami Center
Mon 09:56:29 PM 27.3167 -80.5175 167° South 101 116 3,500  Level Miami Center
Mon 09:57:29 PM 27.2897 -80.5119 170° South 101 116 3,500  Level Miami Center
Mon 09:58:29 PM 27.2650 -80.5042 164° South 101 116 3,500 -50 Level Miami Center
Mon 09:59:29 PM 27.2400 -80.4986 169° South 101 116 3,400 -50 Descending Miami Center
Mon 10:00:29 PM 27.2111 -80.4883 162° South 101 116 3,400 50 Level Miami Center
Mon 10:01:29 PM 27.1842 -80.4828 170° South 101 116 3,500 50 Climbing Miami Center
Mon 10:02:29 PM 27.1572 -80.4728 162° South 101 116 3,500 -6 Level Miami Center
Mon 10:19:11 PM 26.7050 -80.3494 165° South 103 119 3,400  Descending Miami Center
Mon 10:20:00 PM 26.6378 -80.2915 165° South  Level FlightAware
Mon 10:20:37 PM 26.6656 -80.3414 170° South 102 117 3,500  Level Miami Center
Mon 10:21:00 PM 26.6077 -80.2827 165° South  Level FlightAware
Mon 10:21:35 PM 26.6386 -80.3336 166° South 100 115 3,500  Level Miami Center
Mon 10:22:00 PM 26.5777 -80.2738 165° South  Level FlightAware
Mon 10:22:38 PM 26.6117 -80.3211 157° South 102 117 3,500  Level Miami Center
Mon 10:23:00 PM 26.5476 -80.2649 165° South  Level FlightAware
Mon 10:23:44 PM 26.5825 -80.3156 170° South 100 115 3,500  Level Miami Center
Mon 10:24:00 PM 26.5175 -80.2561 165° South  Level FlightAware
Mon 10:24:38 PM 26.5578 -80.3081 165° South 99 114 3,500  Level Miami Center
Mon 10:25:38 PM 26.5286 -80.3025 170° South 101 116 3,500  Level Miami Center
Mon 10:26:33 PM 26.5036 -80.2969 169° South 101 116 3,500 51 Level Miami Center
Mon 10:27:36 PM 26.4767 -80.2894 166° South 99 114 3,600  Climbing Miami Center
Mon 10:28:37 PM 26.4475 -80.2814 166° South 101 116 3,500 -49 Descending Miami Center
Mon 10:29:38 PM 26.4206 -80.2761 170° South 99 114 3,500  Level Miami Center
Mon 10:30:43 PM 26.3917 -80.2661 163° South 100 115 3,500 -102 Level Miami Center
Mon 10:31:36 PM 26.3647 -80.2583 165° South 109 125 3,300 -316 Descending Miami Center
Mon 10:32:37 PM 26.3314 -80.2528 172° South 116 133 2,900 -443 Descending Miami Center
Mon 10:33:38 PM 26.3022 -80.2450 167° South 115 132 2,400 -458 Descending Miami Center
Mon 10:34:35 PM 26.2731 -80.2464 182° South 110 127 2,000 -465 Descending Miami Center
Mon 10:36:00 PM 26.2247 -80.2519 186° South 118 136 1,300 -422 Descending Miami Center
Mon 10:36:43 PM 26.2042 -80.2444 162° South 134 154 1,100 -436 Descending Miami Center
Mon 10:37:50 PM 26.1919 -80.2233 123° Southeast 101 116 500 -537 Descending Miami Center
Mon 10:39:00 PM 26.1861 -80.1852 100° East  Level FlightAware
Mon 10:46:00 PM 26.1833 -80.1667 114° Southeast  Level FlightAware
Mon 10:47:00 PM 26.1973 -80.1707 114° Southeast  Level Estimated

Login

Don't have an account? Register now (free) for customized features, flight alerts, and more!